Time;durP1;ratioP1;P1;durP2;ratioP2;P2;SDS_P1;SDS_P2;PMS_P1;PMS_P2;Temp;Humidity;BMP_temperature;BMP_pressure;BME280_temperature;BME280_humidity;BME280_pressure;Samples;Min_cycle;Max_cycle;Signal;HPM_P1;HPM_P2
2023/03/22 00:02:12;;;;;;;7.68;4.35;;;;;12.20;98306.00;;;;4996606;28;20541;-59
2023/03/22 00:04:41;;;;;;;4.95;4.30;;;;;12.30;98308.00;;;;5012517;28;20516;-57
2023/03/22 00:07:07;;;;;;;5.75;4.35;;;;;12.20;98304.00;;;;5015244;28;20061;-57
2023/03/22 00:09:35;;;;;;;6.40;4.15;;;;;12.20;98295.00;;;;5012393;28;20087;-60
2023/03/22 00:12:02;;;;;;;6.43;4.40;;;;;12.20;98297.00;;;;5013233;28;20080;-63
2023/03/22 00:14:29;;;;;;;5.80;4.50;;;;;12.20;98296.00;;;;5013659;28;20042;-60
2023/03/22 00:16:55;;;;;;;6.13;4.60;;;;;12.20;98293.00;;;;5015417;28;20125;-62
2023/03/22 00:19:22;;;;;;;5.38;4.00;;;;;12.20;98287.00;;;;5017059;28;20498;-59
2023/03/22 00:21:51;;;;;;;7.03;4.13;;;;;12.20;98294.00;;;;5018737;28;20145;-59
2023/03/22 00:24:19;;;;;;;6.38;3.90;;;;;12.20;98292.00;;;;5031446;28;20058;-60
2023/03/22 00:26:47;;;;;;;6.93;4.63;;;;;12.20;98291.00;;;;5016254;28;20092;-59
2023/03/22 00:29:13;;;;;;;7.78;5.05;;;;;12.30;98281.00;;;;5015226;28;20096;-61
2023/03/22 00:31:40;;;;;;;9.05;5.20;;;;;12.30;98268.00;;;;5015609;28;20506;-62
2023/03/22 00:34:07;;;;;;;8.25;4.32;;;;;12.30;98269.00;;;;5016737;28;20050;-62
2023/03/22 00:36:36;;;;;;;5.38;4.18;;;;;12.30;98267.00;;;;5018602;28;20092;-60
2023/03/22 00:39:03;;;;;;;4.75;3.70;;;;;12.40;98268.00;;;;5018296;28;20056;-60
2023/03/22 00:41:31;;;;;;;5.85;4.35;;;;;12.40;98270.00;;;;5020037;28;20133;-62
2023/03/22 00:43:57;;;;;;;5.30;4.20;;;;;12.40;98267.00;;;;5019654;28;20044;-60
2023/03/22 00:46:24;;;;;;;7.05;4.25;;;;;12.40;98265.00;;;;5018990;28;20064;-59
2023/03/22 00:48:51;;;;;;;7.22;4.28;;;;;12.50;98269.00;;;;5019761;28;20046;-60
2023/03/22 00:51:18;;;;;;;5.05;4.43;;;;;12.40;98262.00;;;;5016548;28;20050;-56
2023/03/22 00:53:48;;;;;;;5.10;4.20;;;;;12.50;98260.00;;;;5015786;28;20046;-58
2023/03/22 00:56:15;;;;;;;7.78;4.60;;;;;12.40;98251.00;;;;5032796;28;20046;-56
2023/03/22 00:58:47;;;;;;;6.70;4.45;;;;;12.40;98244.00;;;;5015084;28;20136;-57
2023/03/22 01:01:14;;;;;;;6.43;4.30;;;;;12.50;98247.00;;;;5015292;28;20050;-59
2023/03/22 01:03:42;;;;;;;7.20;4.15;;;;;12.50;98242.00;;;;5015085;28;20046;-57
2023/03/22 01:06:12;;;;;;;5.53;4.28;;;;;12.40;98238.00;;;;5016085;28;20530;-57
2023/03/22 01:08:39;;;;;;;6.22;4.20;;;;;12.40;98240.00;;;;5020545;28;20046;-58
2023/03/22 01:11:08;;;;;;;6.35;4.18;;;;;12.40;98239.00;;;;5022046;28;20038;-59
2023/03/22 01:13:40;;;;;;;7.78;4.25;;;;;12.50;98246.00;;;;5020829;28;20046;-58
2023/03/22 01:16:08;;;;;;;4.38;3.97;;;;;12.40;98236.00;;;;5020609;28;20046;-58
2023/03/22 01:18:35;;;;;;;6.20;4.15;;;;;12.40;98244.00;;;;5021121;28;20056;-60
2023/03/22 01:21:02;;;;;;;7.28;4.35;;;;;12.40;98226.00;;;;5020918;28;20128;-58
2023/03/22 01:23:30;;;;;;;8.57;4.45;;;;;12.40;98236.00;;;;5021158;28;20422;-57
2023/03/22 01:25:57;;;;;;;5.35;3.97;;;;;12.30;98234.00;;;;5020616;28;20108;-61
2023/03/22 01:28:24;;;;;;;8.00;4.13;;;;;12.30;98228.00;;;;5019725;28;20045;-58
2023/03/22 01:30:53;;;;;;;8.27;4.53;;;;;12.30;98219.00;;;;5019135;28;20060;-57
2023/03/22 01:33:20;;;;;;;10.27;4.55;;;;;12.30;98225.00;;;;5035551;28;20046;-57
2023/03/22 01:35:47;;;;;;;7.03;5.03;;;;;12.30;98228.00;;;;5019335;28;20046;-57
2023/03/22 01:38:14;;;;;;;5.85;4.43;;;;;12.40;98219.00;;;;5016933;28;20056;-58
2023/03/22 01:40:49;;;;;;;8.90;4.35;;;;;12.40;98222.00;;;;5014467;28;20046;-56
2023/03/22 01:43:17;;;;;;;7.38;4.65;;;;;12.40;98210.00;;;;5014406;28;20524;-58
2023/03/22 01:45:47;;;;;;;6.95;4.50;;;;;12.40;98206.00;;;;4998330;28;20041;-58
2023/03/22 01:48:26;;;;;;;6.38;4.70;;;;;12.50;98208.00;;;;4998119;28;20116;-57
2023/03/22 01:51:05;;;;;;;5.43;4.40;;;;;12.40;98210.00;;;;5030915;28;20053;-58
2023/03/22 01:53:58;;;;;;;7.47;4.85;;;;;12.50;98211.00;;;;5014407;28;20065;-55
2023/03/22 01:56:29;;;;;;;8.07;5.07;;;;;12.50;98217.00;;;;5016094;28;20124;-58
2023/03/22 01:58:56;;;;;;;8.40;4.80;;;;;12.40;98215.00;;;;5014243;28;20132;-56
2023/03/22 02:01:33;;;;;;;8.13;4.72;;;;;12.40;98213.00;;;;5015024;28;20132;-61
2023/03/22 02:04:11;;;;;;;6.68;4.32;;;;;12.40;98221.00;;;;5015178;28;20053;-60
2023/03/22 02:06:38;;;;;;;5.35;4.03;;;;;12.40;98214.00;;;;5014815;28;20073;-58
2023/03/22 02:09:15;;;;;;;6.88;4.63;;;;;12.40;98210.00;;;;5013903;28;20423;-61
2023/03/22 02:11:49;;;;;;;6.00;4.47;;;;;12.30;98217.00;;;;5014322;28;20060;-61
2023/03/22 02:14:46;;;;;;;5.35;4.65;;;;;12.40;98206.00;;;;5014804;28;20045;-59
2023/03/22 02:18:15;;;;;;;8.77;4.68;;;;;12.40;98201.00;;;;5014386;28;20068;-58
2023/03/22 02:20:52;;;;;;;6.13;4.55;;;;;12.40;98204.00;;;;4963187;28;20517;-57
2023/03/22 02:23:40;;;;;;;6.78;4.25;;;;;12.40;98206.00;;;;5013512;28;20495;-58
2023/03/22 02:26:34;;;;;;;6.85;4.60;;;;;12.40;98204.00;;;;5013426;28;20502;-57
2023/03/22 02:29:16;;;;;;;6.95;4.50;;;;;12.40;98207.00;;;;5014309;28;20046;-58
2023/03/22 02:32:18;;;;;;;6.57;4.55;;;;;12.50;98194.00;;;;5014617;28;20065;-57
2023/03/22 02:35:10;;;;;;;6.20;4.32;;;;;12.50;98189.00;;;;4997166;28;20046;-59
2023/03/22 02:38:04;;;;;;;5.95;4.35;;;;;12.50;98187.00;;;;5013180;28;20050;-59
2023/03/22 02:41:03;;;;;;;7.43;5.18;;;;;12.50;98194.00;;;;5013908;28;20041;-60
2023/03/22 02:43:46;;;;;;;7.57;4.57;;;;;12.50;98195.00;;;;5013088;28;20038;-59
2023/03/22 02:46:24;;;;;;;7.22;4.75;;;;;12.50;98192.00;;;;5014613;28;20124;-61
2023/03/22 02:49:05;;;;;;;6.00;4.65;;;;;12.50;98189.00;;;;5013949;28;20473;-56
2023/03/22 02:52:09;;;;;;;5.15;4.32;;;;;12.50;98190.00;;;;5013335;28;20050;-57
2023/03/22 02:54:44;;;;;;;6.40;3.97;;;;;12.50;98187.00;;;;4971443;28;20046;-58
2023/03/22 02:57:27;;;;;;;6.30;5.38;;;;;12.40;98195.00;;;;5012894;28;20065;-57
2023/03/22 02:59:57;;;;;;;8.07;4.75;;;;;12.40;98183.00;;;;5012317;28;20133;-59
2023/03/22 03:02:26;;;;;;;6.82;4.50;;;;;12.40;98195.00;;;;5013762;28;20421;-61
2023/03/22 03:04:55;;;;;;;7.95;4.32;;;;;12.40;98196.00;;;;5012553;28;20442;-60
2023/03/22 03:07:26;;;;;;;10.38;4.95;;;;;12.40;98196.00;;;;5013916;28;20042;-56
2023/03/22 03:09:53;;;;;;;8.23;4.53;;;;;12.40;98191.00;;;;5028294;28;20465;-57
2023/03/22 03:12:23;;;;;;;7.07;4.72;;;;;12.40;98192.00;;;;5013701;28;20117;-59
2023/03/22 03:14:53;;;;;;;6.95;5.03;;;;;12.50;98178.00;;;;5012425;28;20053;-58
2023/03/22 03:17:31;;;;;;;5.75;4.60;;;;;12.50;98188.00;;;;5012706;28;20216;-62
2023/03/22 03:20:20;;;;;;;7.85;4.68;;;;;12.50;98186.00;;;;5014020;28;20060;-62
2023/03/22 03:23:15;;;;;;;5.75;4.78;;;;;12.50;98174.00;;;;5015750;28;20048;-62
2023/03/22 03:26:07;;;;;;;6.57;4.38;;;;;12.50;98189.00;;;;5012240;28;20050;-62
2023/03/22 03:28:45;;;;;;;7.22;4.78;;;;;12.40;98181.00;;;;5011603;28;20411;-62
2023/03/22 03:31:20;;;;;;;9.07;5.00;;;;;12.40;98179.00;;;;5011470;28;20056;-62
2023/03/22 03:33:57;;;;;;;6.55;4.68;;;;;12.40;98186.00;;;;5013499;28;20054;-62
2023/03/22 03:36:25;;;;;;;5.45;4.60;;;;;12.30;98171.00;;;;5013362;28;20410;-62
2023/03/22 03:38:55;;;;;;;8.48;4.80;;;;;12.20;98174.00;;;;5012924;28;20576;-63
2023/03/22 03:41:27;;;;;;;4.93;4.15;;;;;12.20;98167.00;;;;5012053;28;20077;-62
2023/03/22 03:43:57;;;;;;;7.45;4.63;;;;;12.20;98169.00;;;;5012534;28;20042;-61
2023/03/22 03:46:25;;;;;;;6.57;4.53;;;;;12.10;98156.00;;;;5013688;28;20154;-61
2023/03/22 03:48:55;;;;;;;11.98;5.25;;;;;12.10;98158.00;;;;5012881;28;20038;-62
2023/03/22 03:51:22;;;;;;;6.68;4.80;;;;;12.00;98151.00;;;;5013501;28;20505;-62
2023/03/22 03:53:49;;;;;;;7.57;4.63;;;;;11.90;98152.00;;;;5011665;28;20410;-60
2023/03/22 03:56:16;;;;;;;5.72;4.25;;;;;11.90;98146.00;;;;5011793;28;20053;-64
2023/03/22 03:58:45;;;;;;;8.45;4.60;;;;;11.90;98149.00;;;;5011299;28;20042;-61
2023/03/22 04:01:12;;;;;;;7.00;5.13;;;;;11.90;98147.00;;;;5011336;28;20053;-62
2023/03/22 04:04:04;;;;;;;7.97;4.70;;;;;11.80;98156.00;;;;5012335;28;20156;-62
2023/03/22 04:06:38;;;;;;;5.95;4.53;;;;;11.70;98153.00;;;;5012158;28;20053;-62
2023/03/22 04:09:10;;;;;;;7.97;4.93;;;;;11.70;98158.00;;;;5011943;28;20046;-61
2023/03/22 04:11:41;;;;;;;7.22;4.95;;;;;11.70;98147.00;;;;5012328;28;20053;-62
2023/03/22 04:14:08;;;;;;;7.18;5.30;;;;;11.60;98146.00;;;;5029336;28;20046;-62
2023/03/22 04:16:34;;;;;;;8.95;5.55;;;;;11.60;98143.00;;;;5028148;28;20092;-61
2023/03/22 04:19:01;;;;;;;8.70;5.82;;;;;11.60;98146.00;;;;5010928;28;20424;-61
2023/03/22 04:21:28;;;;;;;8.02;4.82;;;;;11.50;98149.00;;;;5011680;28;20042;-62
2023/03/22 04:23:57;;;;;;;8.60;5.43;;;;;11.50;98147.00;;;;5011750;28;20411;-62
2023/03/22 04:26:25;;;;;;;6.97;4.80;;;;;11.50;98131.00;;;;5011835;28;20498;-62
2023/03/22 04:29:11;;;;;;;12.20;5.53;;;;;11.40;98134.00;;;;5012619;28;20065;-63
2023/03/22 04:31:43;;;;;;;8.27;4.78;;;;;11.40;98144.00;;;;5012113;28;20081;-62
2023/03/22 04:34:18;;;;;;;8.45;4.95;;;;;11.40;98141.00;;;;5028345;28;20052;-61
2023/03/22 04:37:01;;;;;;;8.15;6.15;;;;;11.30;98130.00;;;;5028203;28;20100;-60
2023/03/22 04:39:57;;;;;;;9.45;4.60;;;;;11.30;98141.00;;;;4999099;28;20073;-62
2023/03/22 04:42:34;;;;;;;9.40;4.57;;;;;11.30;98139.00;;;;5016247;28;20060;-61
2023/03/22 04:45:11;;;;;;;5.45;4.28;;;;;11.40;98137.00;;;;5017825;28;20050;-61
2023/03/22 04:47:41;;;;;;;7.18;4.85;;;;;11.40;98135.00;;;;5002274;28;20050;-62
2023/03/22 04:50:08;;;;;;;8.65;5.07;;;;;11.40;98136.00;;;;5017422;28;20060;-62
2023/03/22 04:52:42;;;;;;;8.05;4.88;;;;;11.40;98143.00;;;;5003177;28;20077;-62
2023/03/22 04:55:09;;;;;;;8.23;5.00;;;;;11.50;98137.00;;;;5019378;28;20046;-62
2023/03/22 04:57:36;;;;;;;6.85;5.03;;;;;11.50;98141.00;;;;5021817;28;20394;-62
2023/03/22 05:00:07;;;;;;;9.65;5.30;;;;;11.50;98145.00;;;;5020027;28;20121;-60
2023/03/22 05:02:34;;;;;;;7.13;4.95;;;;;11.50;98140.00;;;;5021599;28;20053;-63
2023/03/22 05:05:00;;;;;;;8.55;4.65;;;;;11.40;98137.00;;;;5021236;28;20042;-62
2023/03/22 05:07:35;;;;;;;9.45;5.53;;;;;11.50;98144.00;;;;5022672;28;20082;-62
2023/03/22 05:10:04;;;;;;;6.43;5.03;;;;;11.50;98146.00;;;;5021645;28;20049;-60
2023/03/22 05:12:31;;;;;;;10.93;4.95;;;;;11.50;98150.00;;;;5023131;28;20069;-59
2023/03/22 05:15:09;;;;;;;9.23;5.32;;;;;11.50;98151.00;;;;5021502;28;20041;-62
2023/03/22 05:17:37;;;;;;;6.75;4.05;;;;;11.40;98152.00;;;;5020596;28;20049;-61
2023/03/22 05:20:09;;;;;;;8.55;4.65;;;;;11.40;98147.00;;;;5019960;28;20054;-62
2023/03/22 05:22:39;;;;;;;6.03;4.65;;;;;11.50;98148.00;;;;5021861;28;20041;-61
2023/03/22 05:25:09;;;;;;;6.00;4.25;;;;;11.50;98151.00;;;;5020792;28;20042;-62
2023/03/22 05:27:37;;;;;;;7.30;4.75;;;;;11.50;98144.00;;;;5021493;28;20046;-62
2023/03/22 05:30:17;;;;;;;6.65;3.97;;;;;11.50;98149.00;;;;5020529;28;20077;-60
2023/03/22 05:32:49;;;;;;;11.38;4.57;;;;;11.40;98154.00;;;;5021438;28;20050;-61
2023/03/22 05:35:17;;;;;;;6.40;4.47;;;;;11.40;98146.00;;;;5021282;28;20042;-63
2023/03/22 05:37:50;;;;;;;9.00;4.78;;;;;11.40;98147.00;;;;5022918;28;20045;-59
2023/03/22 05:40:18;;;;;;;9.02;4.63;;;;;11.40;98150.00;;;;5021377;28;20136;-61
2023/03/22 05:42:45;;;;;;;9.10;5.00;;;;;11.40;98153.00;;;;5021516;28;20042;-57
2023/03/22 05:45:17;;;;;;;6.03;4.15;;;;;11.40;98148.00;;;;5022998;28;20145;-59
2023/03/22 05:47:50;;;;;;;7.60;4.65;;;;;11.40;98145.00;;;;5023884;28;20054;-59
2023/03/22 05:50:22;;;;;;;7.80;4.38;;;;;11.40;98150.00;;;;5024121;28;20049;-58
2023/03/22 05:52:49;;;;;;;10.60;5.72;;;;;11.40;98136.00;;;;5037008;28;20073;-60
2023/03/22 05:55:42;;;;;;;8.07;4.20;;;;;11.30;98140.00;;;;5016462;28;20104;-60
2023/03/22 05:58:09;;;;;;;6.47;4.38;;;;;11.30;98136.00;;;;5020810;28;20114;-60
2023/03/22 06:00:38;;;;;;;6.00;4.00;;;;;11.30;98140.00;;;;5020282;28;20054;-59
2023/03/22 06:03:32;;;;;;;7.57;3.60;;;;;11.30;98138.00;;;;4999778;28;20056;-58
2023/03/22 06:06:09;;;;;;;7.25;4.03;;;;;11.30;98142.00;;;;5023024;28;20049;-59
2023/03/22 06:08:45;;;;;;;9.68;4.22;;;;;11.30;98145.00;;;;5021791;28;20117;-60
2023/03/22 06:11:12;;;;;;;10.55;4.18;;;;;11.30;98142.00;;;;5022533;28;20046;-58
2023/03/22 06:13:39;;;;;;;7.07;4.00;;;;;11.40;98136.00;;;;5023016;28;20042;-60
2023/03/22 06:16:06;;;;;;;9.27;4.63;;;;;11.50;98134.00;;;;5024810;28;20064;-59
2023/03/22 06:18:33;;;;;;;9.13;4.13;;;;;11.50;98134.00;;;;5023500;28;20053;-60
2023/03/22 06:21:07;;;;;;;6.47;4.22;;;;;11.60;98146.00;;;;5033188;28;20050;-59
2023/03/22 06:23:35;;;;;;;8.15;4.18;;;;;11.60;98138.00;;;;5033118;28;20045;-60
2023/03/22 06:26:02;;;;;;;6.88;3.42;;;;;11.60;98144.00;;;;5023881;28;20054;-60
2023/03/22 06:28:31;;;;;;;7.00;5.07;;;;;11.70;98147.00;;;;5026767;28;20046;-60
2023/03/22 06:31:05;;;;;;;7.90;4.38;;;;;11.70;98147.00;;;;5025315;28;20052;-59
2023/03/22 06:33:39;;;;;;;5.10;4.00;;;;;11.70;98152.00;;;;5026323;28;20049;-59
2023/03/22 06:36:21;;;;;;;5.93;3.63;;;;;11.80;98158.00;;;;5026303;28;20060;-59
2023/03/22 06:39:03;;;;;;;6.68;4.18;;;;;11.80;98163.00;;;;5024284;28;20061;-59
2023/03/22 06:41:31;;;;;;;5.43;3.92;;;;;11.80;98152.00;;;;5027248;28;20049;-59
2023/03/22 06:43:59;;;;;;;5.38;3.50;;;;;11.80;98151.00;;;;5010832;28;20042;-59
2023/03/22 06:46:58;;;;;;;6.75;3.45;;;;;11.80;98161.00;;;;5002968;28;20081;-59
2023/03/22 06:49:47;;;;;;;6.07;3.88;;;;;11.90;98169.00;;;;5025606;28;20070;-59
2023/03/22 06:52:28;;;;;;;6.55;3.80;;;;;11.90;98171.00;;;;5026039;28;20096;-59
2023/03/22 06:55:10;;;;;;;8.43;5.60;;;;;12.00;98166.00;;;;5025279;28;20136;-58
2023/03/22 06:57:39;;;;;;;5.20;2.97;;;;;12.00;98164.00;;;;5015689;28;20054;-59
2023/03/22 07:00:08;;;;;;;4.85;3.00;;;;;12.00;98159.00;;;;5012425;28;20052;-59
2023/03/22 07:02:35;;;;;;;5.32;3.03;;;;;12.00;98160.00;;;;5012832;28;20053;-58
2023/03/22 07:05:13;;;;;;;8.63;3.28;;;;;12.10;98156.00;;;;5012662;28;20092;-58
2023/03/22 07:07:39;;;;;;;4.18;3.25;;;;;12.20;98167.00;;;;5012946;28;20088;-58
2023/03/22 07:10:06;;;;;;;6.18;3.03;;;;;12.30;98156.00;;;;5012121;28;20037;-59
2023/03/22 07:12:33;;;;;;;6.88;3.42;;;;;12.40;98169.00;;;;5015313;28;20054;-59
2023/03/22 07:15:07;;;;;;;3.13;2.83;;;;;12.40;98167.00;;;;5035241;28;20076;-60
2023/03/22 07:18:00;;;;;;;6.25;2.63;;;;;12.40;98167.00;;;;5001031;28;20084;-60
2023/03/22 07:20:28;;;;;;;2.80;2.15;;;;;12.50;98165.00;;;;4996555;28;20050;-61
2023/03/22 07:22:56;;;;;;;4.35;2.47;;;;;12.60;98163.00;;;;5012744;28;20046;-60
2023/03/22 07:25:26;;;;;;;6.88;2.60;;;;;12.60;98174.00;;;;5012569;28;20050;-60
2023/03/22 07:28:02;;;;;;;4.50;2.40;;;;;12.70;98168.00;;;;5018809;28;20053;-60
2023/03/22 07:30:30;;;;;;;5.53;3.03;;;;;12.70;98169.00;;;;4997415;28;20041;-60
2023/03/22 07:32:57;;;;;;;5.57;2.70;;;;;12.80;98165.00;;;;5015018;28;20049;-60
2023/03/22 07:35:24;;;;;;;4.65;2.55;;;;;12.80;98174.00;;;;5012492;28;20049;-59
2023/03/22 07:37:53;;;;;;;4.28;2.58;;;;;12.80;98177.00;;;;5012214;28;20454;-60
2023/03/22 07:40:28;;;;;;;3.83;2.42;;;;;12.90;98176.00;;;;5011646;28;20073;-59
2023/03/22 07:42:55;;;;;;;4.63;2.25;;;;;13.00;98174.00;;;;5013241;28;20045;-59
2023/03/22 07:45:34;;;;;;;6.65;2.58;;;;;13.00;98175.00;;;;5012020;28;20450;-59
2023/03/22 07:48:20;;;;;;;2.95;2.30;;;;;13.10;98167.00;;;;5013673;28;20068;-61
2023/03/22 07:51:06;;;;;;;4.38;2.40;;;;;13.30;98176.00;;;;5011896;28;20050;-59
2023/03/22 07:53:33;;;;;;;5.78;2.55;;;;;13.40;98172.00;;;;4995768;28;20152;-58
2023/03/22 07:55:59;;;;;;;4.82;2.42;;;;;13.50;98166.00;;;;5018504;28;20049;-60
2023/03/22 07:58:26;;;;;;;4.93;2.58;;;;;13.60;98159.00;;;;5023036;28;20073;-61
2023/03/22 08:00:57;;;;;;;4.88;2.42;;;;;13.80;98160.00;;;;5022127;28;20069;-59
2023/03/22 08:03:43;;;;;;;3.17;2.15;;;;;14.00;98159.00;;;;5022784;28;20442;-59
2023/03/22 08:06:20;;;;;;;4.88;2.00;;;;;14.10;98168.00;;;;5021584;28;20056;-59
2023/03/22 08:08:47;;;;;;;3.85;2.47;;;;;14.10;98160.00;;;;5019423;28;20041;-58
2023/03/22 08:11:14;;;;;;;5.30;2.25;;;;;14.20;98156.00;;;;5018916;28;20054;-58
2023/03/22 08:13:41;;;;;;;3.50;1.88;;;;;14.40;98148.00;;;;5019216;28;20049;-59
2023/03/22 08:16:09;;;;;;;4.53;2.08;;;;;14.50;98155.00;;;;5019083;28;20042;-59
2023/03/22 08:18:36;;;;;;;2.65;1.67;;;;;14.70;98155.00;;;;5016409;28;20133;-60
2023/03/22 08:21:05;;;;;;;5.63;2.17;;;;;14.70;98161.00;;;;5013595;28;20108;-59
2023/03/22 08:23:34;;;;;;;3.17;1.90;;;;;14.80;98163.00;;;;5032231;28;20073;-59
2023/03/22 08:26:10;;;;;;;4.03;2.42;;;;;14.80;98139.00;;;;5019569;28;20412;-59
2023/03/22 08:28:37;;;;;;;6.90;2.63;;;;;14.90;98147.00;;;;5016060;28;20112;-60
2023/03/22 08:31:14;;;;;;;4.55;2.60;;;;;15.10;98151.00;;;;5017435;28;20054;-58
2023/03/22 08:33:44;;;;;;;3.75;2.47;;;;;15.20;98145.00;;;;5017488;28;20046;-59
2023/03/22 08:36:15;;;;;;;2.17;1.70;;;;;15.40;98144.00;;;;5016890;28;20074;-60
2023/03/22 08:38:47;;;;;;;4.85;2.65;;;;;15.40;98144.00;;;;5012061;28;20107;-58
2023/03/22 08:41:17;;;;;;;3.42;2.45;;;;;15.50;98137.00;;;;5011156;28;20681;-58
2023/03/22 08:43:43;;;;;;;3.22;1.98;;;;;15.70;98145.00;;;;5011125;28;20409;-58
2023/03/22 08:46:10;;;;;;;3.85;1.88;;;;;15.70;98150.00;;;;5027469;28;20133;-58
2023/03/22 08:48:37;;;;;;;2.03;1.83;;;;;15.80;98146.00;;;;5011947;28;20042;-57
2023/03/22 08:51:09;;;;;;;3.17;1.77;;;;;15.80;98142.00;;;;5027670;28;20099;-57
2023/03/22 08:53:49;;;;;;;3.70;1.95;;;;;15.70;98138.00;;;;5012921;28;20046;-60
2023/03/22 08:56:42;;;;;;;2.22;1.77;;;;;15.70;98135.00;;;;4991370;28;20053;-59
2023/03/22 08:59:38;;;;;;;2.75;1.70;;;;;15.70;98142.00;;;;5001896;28;20060;-59
2023/03/22 09:02:19;;;;;;;5.40;2.80;;;;;15.50;98152.00;;;;5013550;28;20050;-59
2023/03/22 09:04:46;;;;;;;1.60;1.50;;;;;15.40;98151.00;;;;5013298;28;20046;-59
2023/03/22 09:07:13;;;;;;;3.55;1.60;;;;;15.30;98150.00;;;;5011897;28;20052;-59
2023/03/22 09:09:45;;;;;;;2.45;1.33;;;;;15.30;98144.00;;;;5010392;28;20069;-60
2023/03/22 09:12:12;;;;;;;3.50;1.50;;;;;15.30;98141.00;;;;5010811;28;20050;-61
2023/03/22 09:14:39;;;;;;;2.40;1.27;;;;;15.40;98132.00;;;;5011206;28;20045;-60
2023/03/22 09:17:06;;;;;;;2.47;1.27;;;;;15.60;98120.00;;;;5011092;28;20056;-60
2023/03/22 09:19:33;;;;;;;1.73;1.10;;;;;16.00;98112.00;;;;5010783;28;20462;-59
2023/03/22 09:22:01;;;;;;;3.45;1.27;;;;;16.20;98111.00;;;;5011009;28;20069;-60
2023/03/22 09:24:36;;;;;;;2.45;1.35;;;;;16.40;98111.00;;;;5010803;28;20042;-60
2023/03/22 09:27:03;;;;;;;2.55;1.20;;;;;16.60;98104.00;;;;5010737;28;20080;-61
2023/03/22 09:29:30;;;;;;;1.98;1.40;;;;;16.70;98119.00;;;;5012756;28;20071;-60
2023/03/22 09:32:00;;;;;;;2.10;1.30;;;;;16.90;98114.00;;;;5014559;28;20056;-61
2023/03/22 09:34:30;;;;;;;5.40;1.60;;;;;16.80;98121.00;;;;5014512;28;20137;-61
2023/03/22 09:37:01;;;;;;;3.22;1.60;;;;;17.00;98117.00;;;;5014826;28;20042;-58
2023/03/22 09:39:37;;;;;;;3.70;1.30;;;;;17.00;98112.00;;;;5014143;28;20081;-60
2023/03/22 09:42:09;;;;;;;2.50;1.20;;;;;17.00;98111.00;;;;5014329;28;20057;-58
2023/03/22 09:44:40;;;;;;;2.20;1.50;;;;;17.20;98099.00;;;;5014580;28;20038;-58
2023/03/22 09:47:16;;;;;;;2.63;1.25;;;;;17.20;98097.00;;;;5014600;28;20145;-59
2023/03/22 09:49:46;;;;;;;;;;;;;17.30;98094.00;;;;5015817;28;20049;-60
2023/03/22 09:52:20;;;;;;;1.35;1.20;;;;;17.10;98089.00;;;;5015668;28;19960;-60
2023/03/22 09:54:47;;;;;;;1.83;1.20;;;;;17.10;98091.00;;;;5016392;28;20429;-59
2023/03/22 09:57:27;;;;;;;2.17;1.35;;;;;17.00;98099.00;;;;5015707;28;20041;-60
2023/03/22 09:59:57;;;;;;;2.03;1.30;;;;;17.20;98095.00;;;;5014826;28;20042;-60
2023/03/22 10:02:50;;;;;;;1.35;1.15;;;;;17.30;98100.00;;;;5015090;28;20168;-60
2023/03/22 10:05:23;;;;;;;2.40;1.10;;;;;17.30;98097.00;;;;5014970;28;20125;-58
2023/03/22 10:08:09;;;;;;;1.70;1.02;;;;;17.60;98075.00;;;;5014099;28;20045;-59
2023/03/22 10:10:40;;;;;;;1.65;1.13;;;;;17.90;98103.00;;;;5014998;28;20057;-60
2023/03/22 10:13:33;;;;;;;1.60;1.10;;;;;18.10;98089.00;;;;5013895;28;20046;-59
2023/03/22 10:16:04;;;;;;;1.70;1.00;;;;;18.10;98102.00;;;;5015039;28;20109;-61
2023/03/22 10:18:42;;;;;;;1.38;1.25;;;;;18.10;98089.00;;;;5014844;28;20074;-60
2023/03/22 10:21:11;;;;;;;1.40;1.15;;;;;18.00;98081.00;;;;5014694;28;20091;-60
2023/03/22 10:23:45;;;;;;;3.58;0.90;;;;;18.20;98087.00;;;;5015949;28;20214;-60
2023/03/22 10:26:33;;;;;;;1.50;1.27;;;;;18.30;98091.00;;;;5017762;28;20523;-60
2023/03/22 10:29:12;;;;;;;1.23;1.00;;;;;18.40;98104.00;;;;5016906;28;20107;-59
2023/03/22 10:31:43;;;;;;;1.77;1.20;;;;;18.40;98089.00;;;;5015545;28;20054;-59
2023/03/22 10:34:20;;;;;;;4.43;1.00;;;;;18.30;98101.00;;;;5013385;28;20061;-58
2023/03/22 10:36:50;;;;;;;1.65;1.10;;;;;18.40;98107.00;;;;5014682;28;20449;-58
2023/03/22 10:39:37;;;;;;;1.55;1.20;;;;;18.50;98095.00;;;;5013192;28;20042;-59
2023/03/22 10:42:19;;;;;;;2.25;1.67;;;;;18.40;98105.00;;;;5013802;28;20064;-58
2023/03/22 10:45:08;;;;;;;1.38;1.10;;;;;18.40;98100.00;;;;5014676;28;20049;-60
2023/03/22 10:47:40;;;;;;;1.20;0.90;;;;;18.30;98110.00;;;;5014293;28;20054;-59
2023/03/22 10:50:28;;;;;;;1.77;1.20;;;;;18.30;98099.00;;;;5013533;28;20100;-59
2023/03/22 10:53:14;;;;;;;2.20;1.23;;;;;18.40;98104.00;;;;5014124;28;20046;-60
2023/03/22 10:55:42;;;;;;;2.45;1.48;;;;;18.30;98109.00;;;;5013962;28;20042;-59
2023/03/22 10:58:17;;;;;;;1.75;1.15;;;;;18.20;98096.00;;;;5014009;28;20103;-60
2023/03/22 11:00:49;;;;;;;1.63;1.20;;;;;18.30;98098.00;;;;5013396;28;20045;-60
2023/03/22 11:03:33;;;;;;;3.67;1.10;;;;;18.40;98098.00;;;;5013992;28;20073;-59
2023/03/22 11:06:11;;;;;;;2.58;1.20;;;;;18.40;98083.00;;;;5016395;28;20048;-59
2023/03/22 11:08:56;;;;;;;1.75;1.38;;;;;18.60;98086.00;;;;5015154;28;20111;-59
2023/03/22 11:11:25;;;;;;;2.03;1.17;;;;;18.70;98096.00;;;;5014376;28;20038;-58
2023/03/22 11:14:12;;;;;;;3.65;1.55;;;;;18.70;98085.00;;;;5014117;28;20136;-59
2023/03/22 11:16:54;;;;;;;1.85;1.20;;;;;18.60;98093.00;;;;5013720;28;20046;-59
2023/03/22 11:19:27;;;;;;;2.70;1.30;;;;;18.60;98092.00;;;;5013182;28;20041;-58
2023/03/22 11:21:56;;;;;;;0.80;0.80;;;;;18.70;98092.00;;;;5013873;28;20053;-61
2023/03/22 11:24:27;;;;;;;1.23;1.13;;;;;18.70;98088.00;;;;5013652;28;20050;-59
2023/03/22 11:27:04;;;;;;;1.10;1.00;;;;;18.60;98095.00;;;;5013477;28;20647;-58
2023/03/22 11:29:49;;;;;;;2.42;1.40;;;;;18.40;98095.00;;;;5012705;28;20093;-59
2023/03/22 11:32:34;;;;;;;2.03;1.40;;;;;18.40;98089.00;;;;5012551;28;20057;-58
2023/03/22 11:35:04;;;;;;;2.35;1.25;;;;;18.50;98092.00;;;;5012567;28;20586;-60
2023/03/22 11:37:30;;;;;;;3.72;1.25;;;;;18.60;98084.00;;;;5013535;28;20049;-62
2023/03/22 11:40:00;;;;;;;2.08;1.58;;;;;18.70;98086.00;;;;5012992;28;20053;-57
2023/03/22 11:42:27;;;;;;;2.00;1.40;;;;;18.80;98082.00;;;;5013394;28;20052;-57
2023/03/22 11:44:55;;;;;;;1.65;1.10;;;;;18.90;98071.00;;;;5013128;28;20113;-57
2023/03/22 11:47:25;;;;;;;1.27;1.17;;;;;19.00;98056.00;;;;5012922;28;20106;-56
2023/03/22 11:49:55;;;;;;;1.83;1.40;;;;;19.20;98056.00;;;;5012368;28;20505;-57
2023/03/22 11:52:25;;;;;;;1.42;1.20;;;;;19.30;98054.00;;;;5011141;28;20046;-56
2023/03/22 11:54:53;;;;;;;2.38;1.30;;;;;19.40;98046.00;;;;5012862;28;20113;-57
2023/03/22 11:57:24;;;;;;;2.10;1.45;;;;;19.30;98057.00;;;;5012875;28;20064;-56
2023/03/22 12:00:06;;;;;;;2.35;1.20;;;;;19.20;98063.00;;;;5012490;28;20041;-56
2023/03/22 12:02:40;;;;;;;1.95;1.10;;;;;19.30;98052.00;;;;5013659;28;20081;-57
2023/03/22 12:05:14;;;;;;;1.80;1.05;;;;;19.30;98073.00;;;;5013664;28;20045;-58
2023/03/22 12:07:42;;;;;;;3.78;1.38;;;;;19.20;98063.00;;;;5013031;28;20038;-57
2023/03/22 12:10:21;;;;;;;2.20;1.30;;;;;19.10;98053.00;;;;5010984;28;20045;-57
2023/03/22 12:12:56;;;;;;;1.40;1.15;;;;;19.10;98054.00;;;;5011367;28;20054;-58
2023/03/22 12:15:27;;;;;;;1.73;1.10;;;;;19.00;98051.00;;;;5012613;28;20050;-61
2023/03/22 12:18:14;;;;;;;2.08;1.17;;;;;19.00;98050.00;;;;5012589;28;20096;-59
2023/03/22 12:20:50;;;;;;;2.13;1.20;;;;;19.00;98055.00;;;;5012020;28;20056;-58
2023/03/22 12:23:22;;;;;;;3.03;1.50;;;;;18.80;98033.00;;;;5012427;28;20060;-57
2023/03/22 12:26:10;;;;;;;2.13;0.90;;;;;18.80;98046.00;;;;5012441;28;20038;-58
2023/03/22 12:29:00;;;;;;;1.98;1.20;;;;;18.90;98051.00;;;;5010582;28;20054;-55
2023/03/22 12:31:35;;;;;;;3.83;1.50;;;;;18.90;98046.00;;;;5004742;28;20061;-57
2023/03/22 12:34:20;;;;;;;3.20;1.60;;;;;19.10;98035.00;;;;5011337;28;20046;-59
2023/03/22 12:36:51;;;;;;;2.17;1.20;;;;;19.40;98034.00;;;;5012292;28;20398;-59
2023/03/22 12:39:26;;;;;;;1.70;1.25;;;;;19.70;98037.00;;;;5011895;28;20100;-59
2023/03/22 12:41:58;;;;;;;2.33;1.10;;;;;19.80;98024.00;;;;5012307;28;20045;-58
2023/03/22 12:44:31;;;;;;;2.63;1.00;;;;;19.70;98015.00;;;;4994962;28;20054;-57
2023/03/22 12:47:04;;;;;;;1.65;1.10;;;;;19.70;98022.00;;;;5012058;28;20403;-57
2023/03/22 12:49:35;;;;;;;3.50;1.25;;;;;19.70;98027.00;;;;5011860;28;20054;-58
2023/03/22 12:52:13;;;;;;;2.25;1.38;;;;;19.80;98022.00;;;;5012189;28;20061;-58